Sofia — V7ZB6 — position and weather

sailwx.info

Track history (hours):
 
Tides and Currents Weather Stations Pressure Air Temp Water Temp Dewpoint Dewpoint Depression Visibility Wind Speed Wind Dir Waves Ship Positions

Sofia

Last reported at 2018-Jul-19 13:19 UTC. Time now 2018-Jul-23 00:25 UTC.
Position N 36°59' E 025°22'.

Length 42 m; draft 2.5 m.

Type: Pleasure craft. MMSI: 538070874.

Date/timePositionNaut miles runAvg speedWind from/ knotsBaromVisibWave heightAir tempDewpointWater temp
2018-Jul-19 13:19N 36°59' E 025°22'411.9
2018-Jul-19 13:00N 37°03' E 025°20'611.7
2018-Jul-19 12:31N 37°08' E 025°18'4 7.7
2018-Jul-19 12:00N 37°08' E 025°14'0 0.1
2018-Jul-19 11:28N 37°08' E 025°14'0 0.0
2018-Jul-19 10:49N 37°08' E 025°14'0 0.0
2018-Jul-19 10:28N 37°08' E 025°14'0 0.0
2018-Jul-19 09:55N 37°08' E 025°14'0 0.0
2018-Jul-19 09:25N 37°08' E 025°14'0 0.0
2018-Jul-19 08:58N 37°08' E 025°14'0 0.0
2018-Jul-19 08:25N 37°08' E 025°14'0 0.0
2018-Jul-19 07:55N 37°08' E 025°14'0 0.0
2018-Jul-19 07:28N 37°08' E 025°14'0 0.0
2018-Jul-19 06:58N 37°08' E 025°14'0 0.0
2018-Jul-19 06:22N 37°08' E 025°14'0 0.0
2018-Jul-19 05:55N 37°08' E 025°14'0 0.1
2018-Jul-19 05:28N 37°08' E 025°14'0 0.0
2018-Jul-19 04:58N 37°08' E 025°14'0 0.0
2018-Jul-19 04:28N 37°08' E 025°14'0 0.0
2018-Jul-19 03:58N 37°08' E 025°14'0 0.0
2018-Jul-19 03:28N 37°08' E 025°14'0 0.0
2018-Jul-19 02:55N 37°08' E 025°14'0 0.0
2018-Jul-19 02:28N 37°08' E 025°14'0 0.0
2018-Jul-19 01:58N 37°08' E 025°14'0 0.0
2018-Jul-19 01:22N 37°08' E 025°14'0 0.0
2018-Jul-19 00:58N 37°08' E 025°14'0 0.0
2018-Jul-19 00:28N 37°08' E 025°14'0 0.0
2018-Jul-18 23:58N 37°08' E 025°14'0 0.0
2018-Jul-18 23:28N 37°08' E 025°14'0 0.0
2018-Jul-18 22:58N 37°08' E 025°14'0 0.0
2018-Jul-18 22:28N 37°08' E 025°14'0 0.0
2018-Jul-18 21:58N 37°08' E 025°14'0 0.1
2018-Jul-18 21:28N 37°08' E 025°14'0 0.0
2018-Jul-18 20:58N 37°08' E 025°14'0 0.0
2018-Jul-18 20:25N 37°08' E 025°14'0 0.0
2018-Jul-18 19:55N 37°08' E 025°14'0 0.0
2018-Jul-18 19:22N 37°08' E 025°14'0 0.0
2018-Jul-18 18:52N 37°08' E 025°14'0 0.5
2018-Jul-18 18:30N 37°09' E 025°14'4 7.2
2018-Jul-18 18:00N 37°08' E 025°18'611.5
2018-Jul-18 17:30N 37°03' E 025°17'9 0.9
2018-Jul-18 06:43N 37°02' E 025°05'1 6.5
2018-Jul-18 06:30N 37°03' E 025°06'10 9.5
2018-Jul-18 05:26N 37°12' E 025°11'4 9.9
2018-Jul-18 05:00N 37°16' E 025°13'5 9.9
2018-Jul-18 04:30N 37°21' E 025°16'5 9.5
2018-Jul-18 04:00N 37°25' E 025°17'3 4.5
2018-Jul-18 03:26N 37°27' E 025°20'0 0.0
2018-Jul-18 02:50N 37°27' E 025°20'0 0.0
2018-Jul-18 02:29N 37°27' E 025°20'0 0.0
2018-Jul-18 01:56N 37°27' E 025°20'0 0.0
2018-Jul-18 01:26N 37°27' E 025°20'0 0.0
2018-Jul-18 00:59N 37°27' E 025°20'0 0.0
2018-Jul-18 00:29N 37°27' E 025°20'0 0.0
2018-Jul-17 23:59N 37°27' E 025°20'0 0.0
2018-Jul-17 23:29N 37°27' E 025°20'0 0.0
2018-Jul-17 22:59N 37°27' E 025°20'0 0.0
2018-Jul-17 22:29N 37°27' E 025°20'0 0.0
2018-Jul-17 21:59N 37°27' E 025°20'0 0.0
2018-Jul-17 21:26N 37°27' E 025°20'0 0.0
2018-Jul-17 20:59N 37°27' E 025°20'0 0.0
2018-Jul-17 20:29N 37°27' E 025°20'0 0.0
2018-Jul-17 19:59N 37°27' E 025°20'0 0.0
2018-Jul-17 19:29N 37°27' E 025°20'0 0.0
2018-Jul-17 18:59N 37°27' E 025°20'0 0.0
2018-Jul-17 18:23N 37°27' E 025°20'0 0.0
2018-Jul-17 17:53N 37°27' E 025°20'0 0.0
2018-Jul-17 17:23N 37°27' E 025°20'0 0.0
2018-Jul-17 16:59N 37°27' E 025°20'0 0.0
2018-Jul-17 16:23N 37°27' E 025°20'0 0.0
2018-Jul-17 15:59N 37°27' E 025°20'0 0.0
2018-Jul-17 15:29N 37°27' E 025°20'0 0.0
2018-Jul-17 14:59N 37°27' E 025°20'0 0.0
2018-Jul-17 14:26N 37°27' E 025°20'0 0.0
2018-Jul-17 13:59N 37°27' E 025°20'0 0.0
2018-Jul-17 13:29N 37°27' E 025°20'0 0.0
2018-Jul-17 12:59N 37°27' E 025°20'0 0.0
2018-Jul-17 12:26N 37°27' E 025°20'0 0.0
2018-Jul-17 11:56N 37°27' E 025°20'0 0.0
2018-Jul-17 11:20N 37°27' E 025°20'0 0.0
2018-Jul-17 10:59N 37°27' E 025°20'0 0.0
2018-Jul-17 10:26N 37°27' E 025°20'0 0.0
2018-Jul-17 09:59N 37°27' E 025°20'0 0.0
2018-Jul-17 09:29N 37°27' E 025°20'0 0.0
2018-Jul-17 08:50N 37°27' E 025°20'0 0.0
2018-Jul-17 08:29N 37°27' E 025°20'0 0.0
2018-Jul-17 07:56N 37°27' E 025°20'0 0.0
2018-Jul-17 07:29N 37°27' E 025°20'0 0.0
2018-Jul-17 06:56N 37°27' E 025°20'0 0.0
2018-Jul-17 06:29N 37°27' E 025°20'0 0.0
2018-Jul-17 05:56N 37°27' E 025°20'0 0.0
2018-Jul-17 05:29N 37°27' E 025°20'0 0.0
2018-Jul-17 04:59N 37°27' E 025°20'0 0.0
2018-Jul-17 04:26N 37°27' E 025°20'0 0.0
2018-Jul-17 03:44N 37°27' E 025°20'0 0.0
2018-Jul-17 03:20N 37°27' E 025°20'0 0.0
2018-Jul-17 02:59N 37°27' E 025°20'0 0.0
2018-Jul-17 02:29N 37°27' E 025°20'0 0.0
2018-Jul-17 01:53N 37°27' E 025°20'0 0.0
2018-Jul-17 01:29N 37°27' E 025°20'0 0.0
2018-Jul-17 00:56N 37°27' E 025°20'0 0.0
2018-Jul-17 00:14N 37°27' E 025°20'0 0.0
2018-Jul-16 23:23N 37°27' E 025°20'0 0.0
2018-Jul-16 15:41N 37°27' E 025°20'0 0.0
2018-Jul-16 15:29N 37°27' E 025°20'0 0.0
2018-Jul-16 14:56N 37°27' E 025°20'0 0.0
2018-Jul-16 14:29N 37°27' E 025°20'0 0.0
2018-Jul-16 13:50N 37°27' E 025°20'0 0.0
2018-Jul-16 13:26N 37°27' E 025°20'0 0.0
2018-Jul-16 12:56N 37°27' E 025°20'0 0.0
2018-Jul-16 12:26N 37°27' E 025°20'0 0.0
2018-Jul-16 11:59N 37°27' E 025°20'0 0.0
2018-Jul-16 11:26N 37°27' E 025°20'0 0.0
2018-Jul-16 10:44N 37°27' E 025°20'0 0.0
2018-Jul-16 10:29N 37°27' E 025°20'0 0.0
2018-Jul-16 09:59N 37°27' E 025°20'0 0.0
2018-Jul-16 09:30N 37°27' E 025°20'0 0.9
2018-Jul-16 09:01N 37°27' E 025°19'0 0.4
2018-Jul-16 08:30N 37°27' E 025°19'3 5.9
2018-Jul-16 08:00N 37°24' E 025°18'2 3.5
2018-Jul-16 07:28N 37°25' E 025°20'0 0.0
2018-Jul-16 06:58N 37°25' E 025°20'0 0.0
2018-Jul-16 06:28N 37°25' E 025°20'0 0.0
2018-Jul-16 05:58N 37°25' E 025°20'0 0.0
2018-Jul-16 05:28N 37°25' E 025°20'0 0.0
2018-Jul-16 04:55N 37°25' E 025°20'0 0.0
2018-Jul-16 04:28N 37°25' E 025°20'0 0.0
2018-Jul-16 03:52N 37°25' E 025°20'0 0.0
2018-Jul-16 03:28N 37°25' E 025°20'0 0.0
2018-Jul-16 02:58N 37°25' E 025°20'0 0.0
2018-Jul-16 02:28N 37°25' E 025°20'0 0.0
2018-Jul-16 01:55N 37°25' E 025°20'0 0.0
2018-Jul-16 01:28N 37°25' E 025°20'0 0.0
2018-Jul-16 00:58N 37°25' E 025°20'0 0.0
2018-Jul-16 00:28N 37°25' E 025°20'0 0.0
2018-Jul-15 23:58N 37°25' E 025°20'0 0.0
2018-Jul-15 23:28N 37°25' E 025°20'0 0.1
2018-Jul-15 22:55N 37°25' E 025°20'0 0.0
2018-Jul-15 22:28N 37°25' E 025°20'0 0.0
2018-Jul-15 21:58N 37°25' E 025°20'0 0.0
2018-Jul-15 21:28N 37°25' E 025°20'0 0.0
2018-Jul-15 20:55N 37°25' E 025°20'0 0.0
2018-Jul-15 20:19N 37°25' E 025°20'0 0.1
2018-Jul-15 19:58N 37°25' E 025°20'0 0.0
2018-Jul-15 19:25N 37°25' E 025°20'0 0.0
2018-Jul-15 18:58N 37°25' E 025°20'0 0.0
2018-Jul-15 18:28N 37°25' E 025°20'0 0.0
2018-Jul-15 17:58N 37°25' E 025°20'0 0.0
2018-Jul-15 17:28N 37°25' E 025°20'0 0.0
2018-Jul-15 16:58N 37°25' E 025°20'0 0.0
2018-Jul-15 16:28N 37°25' E 025°20'0 0.0
2018-Jul-15 15:58N 37°25' E 025°20'0 0.1
2018-Jul-15 15:28N 37°25' E 025°20'0 0.1
2018-Jul-15 14:58N 37°25' E 025°20'0 0.0
2018-Jul-15 14:25N 37°25' E 025°20'0 0.0
2018-Jul-15 13:58N 37°25' E 025°20'0 0.0
2018-Jul-15 13:22N 37°25' E 025°20'0 0.0
2018-Jul-15 12:58N 37°25' E 025°20'0 0.0
2018-Jul-15 12:28N 37°25' E 025°20'0 0.0
2018-Jul-15 11:58N 37°25' E 025°20'0 0.0
2018-Jul-15 11:28N 37°25' E 025°20'0 0.0
2018-Jul-15 10:58N 37°25' E 025°20'0 0.0
2018-Jul-15 10:28N 37°25' E 025°20'0 0.0
2018-Jul-15 09:58N 37°25' E 025°20'0 0.0
2018-Jul-15 09:28N 37°25' E 025°20'0 0.0
2018-Jul-15 08:55N 37°25' E 025°20'0 0.0
2018-Jul-15 08:25N 37°25' E 025°20'0 0.0
2018-Jul-15 07:58N 37°25' E 025°20'0 0.0
2018-Jul-15 07:28N 37°25' E 025°20'0 0.0
2018-Jul-15 06:58N 37°25' E 025°20'0 0.0
2018-Jul-15 06:28N 37°25' E 025°20'0 0.0
2018-Jul-15 05:58N 37°25' E 025°20'0 0.0
2018-Jul-15 05:25N 37°25' E 025°20'0 0.1
2018-Jul-15 04:58N 37°25' E 025°20'0 0.0
2018-Jul-15 04:28N 37°25' E 025°20'0 0.0
2018-Jul-15 03:49N 37°25' E 025°20'0 0.0
2018-Jul-15 03:22N 37°25' E 025°20'0 0.0
2018-Jul-15 02:58N 37°25' E 025°20'0 0.0
2018-Jul-15 02:28N 37°25' E 025°20'0 0.0
2018-Jul-15 01:55N 37°25' E 025°20'0 0.0
2018-Jul-15 01:28N 37°25' E 025°20'0 0.0
2018-Jul-15 00:58N 37°25' E 025°20'0 0.0
2018-Jul-15 00:28N 37°25' E 025°20'0 0.0
2018-Jul-14 23:58N 37°25' E 025°20'0 0.0
2018-Jul-14 23:28N 37°25' E 025°20'0 0.0
2018-Jul-14 22:58N 37°25' E 025°20'0 0.0
2018-Jul-14 22:28N 37°25' E 025°20'0 0.0
2018-Jul-14 21:58N 37°25' E 025°20'0 0.0
2018-Jul-14 21:25N 37°25' E 025°20'0 0.0
2018-Jul-14 20:58N 37°25' E 025°20'0 0.0
2018-Jul-14 20:25N 37°25' E 025°20'0 0.0
2018-Jul-14 19:52N 37°25' E 025°20'0 0.0
2018-Jul-14 19:28N 37°25' E 025°20'0 0.1
2018-Jul-14 18:55N 37°25' E 025°20'0 0.1
2018-Jul-14 18:25N 37°25' E 025°20'0 0.0
2018-Jul-14 17:58N 37°25' E 025°20'0 0.0
2018-Jul-14 17:28N 37°25' E 025°20'0 0.0
2018-Jul-14 16:58N 37°25' E 025°20'0 0.0
2018-Jul-14 16:28N 37°25' E 025°20'0 0.1
2018-Jul-14 15:58N 37°24' E 025°20'0 0.0
2018-Jul-14 15:28N 37°24' E 025°20'0 0.0
2018-Jul-14 14:58N 37°24' E 025°20'0 0.1
2018-Jul-14 14:28N 37°24' E 025°20'0 0.1
2018-Jul-14 13:28N 37°24' E 025°20'0 0.1
2018-Jul-14 12:58N 37°24' E 025°20'0 0.0
2018-Jul-14 12:28N 37°24' E 025°20'0 0.0
2018-Jul-14 11:58N 37°24' E 025°20'0 0.0
2018-Jul-14 11:28N 37°24' E 025°20'0 0.0
2018-Jul-14 10:58N 37°24' E 025°20'0 0.1
2018-Jul-14 10:22N 37°24' E 025°20'0 0.1
2018-Jul-14 09:58N 37°24' E 025°20'0 0.0
2018-Jul-14 09:28N 37°24' E 025°20'0 0.0
2018-Jul-14 08:58N 37°24' E 025°20'0 0.0
2018-Jul-14 08:25N 37°24' E 025°20'0 0.0
2018-Jul-14 07:55N 37°24' E 025°20'0 0.0
2018-Jul-14 07:28N 37°24' E 025°20'0 0.0
2018-Jul-14 06:52N 37°24' E 025°20'0 0.1
2018-Jul-14 06:25N 37°24' E 025°20'0 0.0
2018-Jul-14 05:58N 37°24' E 025°20'0 0.8
2018-Jul-14 05:30N 37°24' E 025°20'1 1.0
2018-Jul-14 04:57N 37°25' E 025°19'0 0.1
2018-Jul-14 04:29N 37°25' E 025°19'0 0.0
2018-Jul-14 04:00N 37°25' E 025°19'0 0.0
2018-Jul-14 03:30N 37°25' E 025°19'0 0.0
2018-Jul-14 03:00N 37°25' E 025°19'0 0.0
2018-Jul-14 02:30N 37°25' E 025°19'0 0.0
2018-Jul-14 01:57N 37°25' E 025°19'0 0.0
2018-Jul-14 01:29N 37°25' E 025°19'0 0.0
2018-Jul-14 01:00N 37°25' E 025°19'0 0.0
2018-Jul-14 00:29N 37°25' E 025°19'0 0.0
2018-Jul-13 23:57N 37°25' E 025°19'0 0.0
2018-Jul-13 23:30N 37°25' E 025°19'0 0.0
2018-Jul-13 22:57N 37°25' E 025°19'0 0.0
2018-Jul-13 22:30N 37°25' E 025°19'0 0.8
2018-Jul-13 22:00N 37°24' E 025°19'4 7.1
2018-Jul-13 21:30N 37°26' E 025°16'4 8.3
2018-Jul-13 21:00N 37°26' E 025°10'7 8.6
2018-Jul-13 20:09N 37°23' E 025°02'1 8.7
2018-Jul-13 20:00N 37°23' E 025°00'4 8.8
2018-Jul-13 19:31N 37°22' E 024°55'4 8.7
2018-Jul-13 19:00N 37°21' E 024°50'62 9.8
2018-Jul-13 12:41N 37°33' E 023°33'210.9
2018-Jul-13 12:28N 37°33' E 023°30'4 7.7
2018-Jul-13 11:53N 37°31' E 023°26'1 0.3
2018-Jul-13 07:40N 37°30' E 023°27'0 0.0
2018-Jul-13 07:28N 37°30' E 023°27'0 0.0
2018-Jul-13 06:46N 37°30' E 023°27'0 0.0
2018-Jul-13 06:13N 37°30' E 023°27'0 0.0
2018-Jul-13 05:52N 37°30' E 023°27'0 0.0
2018-Jul-13 03:34N 37°30' E 023°27'0 0.0
2018-Jul-13 03:16N 37°30' E 023°27'0 0.0
2018-Jul-13 02:55N 37°30' E 023°27'0 0.0
2018-Jul-13 02:04N 37°30' E 023°27'0 0.0
2018-Jul-13 01:49N 37°30' E 023°27'0 0.0
2018-Jul-13 01:22N 37°30' E 023°27'0 0.0
2018-Jul-13 00:58N 37°30' E 023°27'0 0.0
2018-Jul-13 00:28N 37°30' E 023°27'0 0.0
2018-Jul-12 23:58N 37°30' E 023°27'0 0.0
2018-Jul-12 23:28N 37°30' E 023°27'0 0.0
2018-Jul-12 22:58N 37°30' E 023°27'0 0.0
2018-Jul-12 22:28N 37°30' E 023°27'0 0.0
2018-Jul-12 21:58N 37°30' E 023°27'0 0.0
2018-Jul-12 21:13N 37°30' E 023°27'0 0.0
2018-Jul-12 20:55N 37°30' E 023°27'0 0.0
2018-Jul-12 20:25N 37°30' E 023°27'0 0.0
2018-Jul-12 19:58N 37°30' E 023°27'0 0.0
2018-Jul-12 19:28N 37°30' E 023°27'0 0.0
2018-Jul-12 18:55N 37°30' E 023°27'0 0.0
2018-Jul-12 18:28N 37°30' E 023°27'0 0.0
2018-Jul-12 17:04N 37°30' E 023°27'0 0.0
2018-Jul-12 16:52N 37°30' E 023°27'0 0.0
2018-Jul-12 11:46N 37°30' E 023°27'0 0.0
2018-Jul-12 11:25N 37°30' E 023°27'0 0.0
2018-Jul-12 10:52N 37°30' E 023°27'0 0.0
2018-Jul-12 10:22N 37°30' E 023°27'0 0.4
2018-Jul-12 09:55N 37°30' E 023°27'2 4.1
2018-Jul-12 09:30N 37°31' E 023°25'5 8.8
2018-Jul-12 08:59N 37°36' E 023°25'4 8.8
2018-Jul-12 08:31N 37°39' E 023°22'5 9.5
2018-Jul-12 08:00N 37°42' E 023°17'5 9.8
2018-Jul-12 07:30N 37°46' E 023°14'5 9.7
2018-Jul-12 07:00N 37°49' E 023°10'5 9.9
2018-Jul-12 06:30N 37°52' E 023°05'5 9.9
2018-Jul-12 05:59N 37°56' E 022°60'4 8.1
2018-Jul-12 05:30N 37°58' E 022°56'5 9.8
2018-Jul-12 05:00N 38°00' E 022°50'510.8
2018-Jul-12 04:30N 38°03' E 022°44'  
Track history (hours):
 
Tides and Currents Weather Stations Pressure Air Temp Water Temp Dewpoint Dewpoint Depression Visibility Wind Speed Wind Dir Waves Ship Positions

Sofia

Last reported at 2018-Jul-19 13:19 UTC. Time now 2018-Jul-23 00:25 UTC.
Position N 36°59' E 025°22'.

Length 42 m; draft 2.5 m.

Type: Pleasure craft. MMSI: 538070874.

Date/timePositionNaut miles runAvg speedWind from/ knotsBaromVisibWave heightAir tempDewpointWater temp
2018-Jul-19 13:19N 36°59' E 025°22'411.9
2018-Jul-19 13:00N 37°03' E 025°20'611.7
2018-Jul-19 12:31N 37°08' E 025°18'4 7.7
2018-Jul-19 12:00N 37°08' E 025°14'0 0.1
2018-Jul-19 11:28N 37°08' E 025°14'0 0.0
2018-Jul-19 10:49N 37°08' E 025°14'0 0.0
2018-Jul-19 10:28N 37°08' E 025°14'0 0.0
2018-Jul-19 09:55N 37°08' E 025°14'0 0.0
2018-Jul-19 09:25N 37°08' E 025°14'0 0.0
2018-Jul-19 08:58N 37°08' E 025°14'0 0.0
2018-Jul-19 08:25N 37°08' E 025°14'0 0.0
2018-Jul-19 07:55N 37°08' E 025°14'0 0.0
2018-Jul-19 07:28N 37°08' E 025°14'0 0.0
2018-Jul-19 06:58N 37°08' E 025°14'0 0.0
2018-Jul-19 06:22N 37°08' E 025°14'0 0.0
2018-Jul-19 05:55N 37°08' E 025°14'0 0.1
2018-Jul-19 05:28N 37°08' E 025°14'0 0.0
2018-Jul-19 04:58N 37°08' E 025°14'0 0.0
2018-Jul-19 04:28N 37°08' E 025°14'0 0.0
2018-Jul-19 03:58N 37°08' E 025°14'0 0.0
2018-Jul-19 03:28N 37°08' E 025°14'0 0.0
2018-Jul-19 02:55N 37°08' E 025°14'0 0.0
2018-Jul-19 02:28N 37°08' E 025°14'0 0.0
2018-Jul-19 01:58N 37°08' E 025°14'0 0.0
2018-Jul-19 01:22N 37°08' E 025°14'0 0.0
2018-Jul-19 00:58N 37°08' E 025°14'0 0.0
2018-Jul-19 00:28N 37°08' E 025°14'0 0.0
2018-Jul-18 23:58N 37°08' E 025°14'0 0.0
2018-Jul-18 23:28N 37°08' E 025°14'0 0.0
2018-Jul-18 22:58N 37°08' E 025°14'0 0.0
2018-Jul-18 22:28N 37°08' E 025°14'0 0.0
2018-Jul-18 21:58N 37°08' E 025°14'0 0.1
2018-Jul-18 21:28N 37°08' E 025°14'0 0.0
2018-Jul-18 20:58N 37°08' E 025°14'0 0.0
2018-Jul-18 20:25N 37°08' E 025°14'0 0.0
2018-Jul-18 19:55N 37°08' E 025°14'0 0.0
2018-Jul-18 19:22N 37°08' E 025°14'0 0.0
2018-Jul-18 18:52N 37°08' E 025°14'0 0.5
2018-Jul-18 18:30N 37°09' E 025°14'4 7.2
2018-Jul-18 18:00N 37°08' E 025°18'611.5
2018-Jul-18 17:30N 37°03' E 025°17'9 0.9
2018-Jul-18 06:43N 37°02' E 025°05'1 6.5
2018-Jul-18 06:30N 37°03' E 025°06'10 9.5
2018-Jul-18 05:26N 37°12' E 025°11'4 9.9
2018-Jul-18 05:00N 37°16' E 025°13'5 9.9
2018-Jul-18 04:30N 37°21' E 025°16'5 9.5
2018-Jul-18 04:00N 37°25' E 025°17'3 4.5
2018-Jul-18 03:26N 37°27' E 025°20'0 0.0
2018-Jul-18 02:50N 37°27' E 025°20'0 0.0
2018-Jul-18 02:29N 37°27' E 025°20'0 0.0
2018-Jul-18 01:56N 37°27' E 025°20'0 0.0
2018-Jul-18 01:26N 37°27' E 025°20'0 0.0
2018-Jul-18 00:59N 37°27' E 025°20'0 0.0
2018-Jul-18 00:29N 37°27' E 025°20'0 0.0
2018-Jul-17 23:59N 37°27' E 025°20'0 0.0
2018-Jul-17 23:29N 37°27' E 025°20'0 0.0
2018-Jul-17 22:59N 37°27' E 025°20'0 0.0
2018-Jul-17 22:29N 37°27' E 025°20'0 0.0
2018-Jul-17 21:59N 37°27' E 025°20'0 0.0
2018-Jul-17 21:26N 37°27' E 025°20'0 0.0
2018-Jul-17 20:59N 37°27' E 025°20'0 0.0
2018-Jul-17 20:29N 37°27' E 025°20'0 0.0
2018-Jul-17 19:59N 37°27' E 025°20'0 0.0
2018-Jul-17 19:29N 37°27' E 025°20'0 0.0
2018-Jul-17 18:59N 37°27' E 025°20'0 0.0
2018-Jul-17 18:23N 37°27' E 025°20'0 0.0
2018-Jul-17 17:53N 37°27' E 025°20'0 0.0
2018-Jul-17 17:23N 37°27' E 025°20'0 0.0
2018-Jul-17 16:59N 37°27' E 025°20'0 0.0
2018-Jul-17 16:23N 37°27' E 025°20'0 0.0
2018-Jul-17 15:59N 37°27' E 025°20'0 0.0
2018-Jul-17 15:29N 37°27' E 025°20'0 0.0
2018-Jul-17 14:59N 37°27' E 025°20'0 0.0
2018-Jul-17 14:26N 37°27' E 025°20'0 0.0
2018-Jul-17 13:59N 37°27' E 025°20'0 0.0
2018-Jul-17 13:29N 37°27' E 025°20'0 0.0
2018-Jul-17 12:59N 37°27' E 025°20'0 0.0
2018-Jul-17 12:26N 37°27' E 025°20'0 0.0
2018-Jul-17 11:56N 37°27' E 025°20'0 0.0
2018-Jul-17 11:20N 37°27' E 025°20'0 0.0
2018-Jul-17 10:59N 37°27' E 025°20'0 0.0
2018-Jul-17 10:26N 37°27' E 025°20'0 0.0
2018-Jul-17 09:59N 37°27' E 025°20'0 0.0
2018-Jul-17 09:29N 37°27' E 025°20'0 0.0
2018-Jul-17 08:50N 37°27' E 025°20'0 0.0
2018-Jul-17 08:29N 37°27' E 025°20'0 0.0
2018-Jul-17 07:56N 37°27' E 025°20'0 0.0
2018-Jul-17 07:29N 37°27' E 025°20'0 0.0
2018-Jul-17 06:56N 37°27' E 025°20'0 0.0
2018-Jul-17 06:29N 37°27' E 025°20'0 0.0
2018-Jul-17 05:56N 37°27' E 025°20'0 0.0
2018-Jul-17 05:29N 37°27' E 025°20'0 0.0
2018-Jul-17 04:59N 37°27' E 025°20'0 0.0
2018-Jul-17 04:26N 37°27' E 025°20'0 0.0
2018-Jul-17 03:44N 37°27' E 025°20'0 0.0
2018-Jul-17 03:20N 37°27' E 025°20'0 0.0
2018-Jul-17 02:59N 37°27' E 025°20'0 0.0
2018-Jul-17 02:29N 37°27' E 025°20'0 0.0
2018-Jul-17 01:53N 37°27' E 025°20'0 0.0
2018-Jul-17 01:29N 37°27' E 025°20'0 0.0
2018-Jul-17 00:56N 37°27' E 025°20'0 0.0
2018-Jul-17 00:14N 37°27' E 025°20'0 0.0
2018-Jul-16 23:23N 37°27' E 025°20'0 0.0
2018-Jul-16 15:41N 37°27' E 025°20'0 0.0
2018-Jul-16 15:29N 37°27' E 025°20'0 0.0
2018-Jul-16 14:56N 37°27' E 025°20'0 0.0
2018-Jul-16 14:29N 37°27' E 025°20'0 0.0
2018-Jul-16 13:50N 37°27' E 025°20'0 0.0
2018-Jul-16 13:26N 37°27' E 025°20'0 0.0
2018-Jul-16 12:56N 37°27' E 025°20'0 0.0
2018-Jul-16 12:26N 37°27' E 025°20'0 0.0
2018-Jul-16 11:59N 37°27' E 025°20'0 0.0
2018-Jul-16 11:26N 37°27' E 025°20'0 0.0
2018-Jul-16 10:44N 37°27' E 025°20'0 0.0
2018-Jul-16 10:29N 37°27' E 025°20'0 0.0
2018-Jul-16 09:59N 37°27' E 025°20'0 0.0
2018-Jul-16 09:30N 37°27' E 025°20'0 0.9
2018-Jul-16 09:01N 37°27' E 025°19'0 0.4
2018-Jul-16 08:30N 37°27' E 025°19'3 5.9
2018-Jul-16 08:00N 37°24' E 025°18'2 3.5
2018-Jul-16 07:28N 37°25' E 025°20'0 0.0
2018-Jul-16 06:58N 37°25' E 025°20'0 0.0
2018-Jul-16 06:28N 37°25' E 025°20'0 0.0
2018-Jul-16 05:58N 37°25' E 025°20'0 0.0
2018-Jul-16 05:28N 37°25' E 025°20'0 0.0
2018-Jul-16 04:55N 37°25' E 025°20'0 0.0
2018-Jul-16 04:28N 37°25' E 025°20'0 0.0
2018-Jul-16 03:52N 37°25' E 025°20'0 0.0
2018-Jul-16 03:28N 37°25' E 025°20'0 0.0
2018-Jul-16 02:58N 37°25' E 025°20'0 0.0
2018-Jul-16 02:28N 37°25' E 025°20'0 0.0
2018-Jul-16 01:55N 37°25' E 025°20'0 0.0
2018-Jul-16 01:28N 37°25' E 025°20'0 0.0
2018-Jul-16 00:58N 37°25' E 025°20'0 0.0
2018-Jul-16 00:28N 37°25' E 025°20'0 0.0
2018-Jul-15 23:58N 37°25' E 025°20'0 0.0
2018-Jul-15 23:28N 37°25' E 025°20'0 0.1
2018-Jul-15 22:55N 37°25' E 025°20'0 0.0
2018-Jul-15 22:28N 37°25' E 025°20'0 0.0
2018-Jul-15 21:58N 37°25' E 025°20'0 0.0
2018-Jul-15 21:28N 37°25' E 025°20'0 0.0
2018-Jul-15 20:55N 37°25' E 025°20'0 0.0
2018-Jul-15 20:19N 37°25' E 025°20'0 0.1
2018-Jul-15 19:58N 37°25' E 025°20'0 0.0
2018-Jul-15 19:25N 37°25' E 025°20'0 0.0
2018-Jul-15 18:58N 37°25' E 025°20'0 0.0
2018-Jul-15 18:28N 37°25' E 025°20'0 0.0
2018-Jul-15 17:58N 37°25' E 025°20'0 0.0
2018-Jul-15 17:28N 37°25' E 025°20'0 0.0
2018-Jul-15 16:58N 37°25' E 025°20'0 0.0
2018-Jul-15 16:28N 37°25' E 025°20'0 0.0
2018-Jul-15 15:58N 37°25' E 025°20'0 0.1
2018-Jul-15 15:28N 37°25' E 025°20'0 0.1
2018-Jul-15 14:58N 37°25' E 025°20'0 0.0
2018-Jul-15 14:25N 37°25' E 025°20'0 0.0
2018-Jul-15 13:58N 37°25' E 025°20'0 0.0
2018-Jul-15 13:22N 37°25' E 025°20'0 0.0
2018-Jul-15 12:58N 37°25' E 025°20'0 0.0
2018-Jul-15 12:28N 37°25' E 025°20'0 0.0
2018-Jul-15 11:58N 37°25' E 025°20'0 0.0
2018-Jul-15 11:28N 37°25' E 025°20'0 0.0
2018-Jul-15 10:58N 37°25' E 025°20'0 0.0
2018-Jul-15 10:28N 37°25' E 025°20'0 0.0
2018-Jul-15 09:58N 37°25' E 025°20'0 0.0
2018-Jul-15 09:28N 37°25' E 025°20'0 0.0
2018-Jul-15 08:55N 37°25' E 025°20'0 0.0
2018-Jul-15 08:25N 37°25' E 025°20'0 0.0
2018-Jul-15 07:58N 37°25' E 025°20'0 0.0
2018-Jul-15 07:28N 37°25' E 025°20'0 0.0
2018-Jul-15 06:58N 37°25' E 025°20'0 0.0
2018-Jul-15 06:28N 37°25' E 025°20'0 0.0
2018-Jul-15 05:58N 37°25' E 025°20'0 0.0
2018-Jul-15 05:25N 37°25' E 025°20'0 0.1
2018-Jul-15 04:58N 37°25' E 025°20'0 0.0
2018-Jul-15 04:28N 37°25' E 025°20'0 0.0
2018-Jul-15 03:49N 37°25' E 025°20'0 0.0
2018-Jul-15 03:22N 37°25' E 025°20'0 0.0
2018-Jul-15 02:58N 37°25' E 025°20'0 0.0
2018-Jul-15 02:28N 37°25' E 025°20'0 0.0
2018-Jul-15 01:55N 37°25' E 025°20'0 0.0
2018-Jul-15 01:28N 37°25' E 025°20'0 0.0
2018-Jul-15 00:58N 37°25' E 025°20'0 0.0
2018-Jul-15 00:28N 37°25' E 025°20'0 0.0
2018-Jul-14 23:58N 37°25' E 025°20'0 0.0
2018-Jul-14 23:28N 37°25' E 025°20'0 0.0
2018-Jul-14 22:58N 37°25' E 025°20'0 0.0
2018-Jul-14 22:28N 37°25' E 025°20'0 0.0
2018-Jul-14 21:58N 37°25' E 025°20'0 0.0
2018-Jul-14 21:25N 37°25' E 025°20'0 0.0
2018-Jul-14 20:58N 37°25' E 025°20'0 0.0
2018-Jul-14 20:25N 37°25' E 025°20'0 0.0
2018-Jul-14 19:52N 37°25' E 025°20'0 0.0
2018-Jul-14 19:28N 37°25' E 025°20'0 0.1
2018-Jul-14 18:55N 37°25' E 025°20'0 0.1
2018-Jul-14 18:25N 37°25' E 025°20'0 0.0
2018-Jul-14 17:58N 37°25' E 025°20'0 0.0
2018-Jul-14 17:28N 37°25' E 025°20'0 0.0
2018-Jul-14 16:58N 37°25' E 025°20'0 0.0
2018-Jul-14 16:28N 37°25' E 025°20'0 0.1
2018-Jul-14 15:58N 37°24' E 025°20'0 0.0
2018-Jul-14 15:28N 37°24' E 025°20'0 0.0
2018-Jul-14 14:58N 37°24' E 025°20'0 0.1
2018-Jul-14 14:28N 37°24' E 025°20'0 0.1
2018-Jul-14 13:28N 37°24' E 025°20'0 0.1
2018-Jul-14 12:58N 37°24' E 025°20'0 0.0
2018-Jul-14 12:28N 37°24' E 025°20'0 0.0
2018-Jul-14 11:58N 37°24' E 025°20'0 0.0
2018-Jul-14 11:28N 37°24' E 025°20'0 0.0
2018-Jul-14 10:58N 37°24' E 025°20'0 0.1
2018-Jul-14 10:22N 37°24' E 025°20'0 0.1
2018-Jul-14 09:58N 37°24' E 025°20'0 0.0
2018-Jul-14 09:28N 37°24' E 025°20'0 0.0
2018-Jul-14 08:58N 37°24' E 025°20'0 0.0
2018-Jul-14 08:25N 37°24' E 025°20'0 0.0
2018-Jul-14 07:55N 37°24' E 025°20'0 0.0
2018-Jul-14 07:28N 37°24' E 025°20'0 0.0
2018-Jul-14 06:52N 37°24' E 025°20'0 0.1
2018-Jul-14 06:25N 37°24' E 025°20'0 0.0
2018-Jul-14 05:58N 37°24' E 025°20'0 0.8
2018-Jul-14 05:30N 37°24' E 025°20'1 1.0
2018-Jul-14 04:57N 37°25' E 025°19'0 0.1
2018-Jul-14 04:29N 37°25' E 025°19'0 0.0
2018-Jul-14 04:00N 37°25' E 025°19'0 0.0
2018-Jul-14 03:30N 37°25' E 025°19'0 0.0
2018-Jul-14 03:00N 37°25' E 025°19'0 0.0
2018-Jul-14 02:30N 37°25' E 025°19'0 0.0
2018-Jul-14 01:57N 37°25' E 025°19'0 0.0
2018-Jul-14 01:29N 37°25' E 025°19'0 0.0
2018-Jul-14 01:00N 37°25' E 025°19'0 0.0
2018-Jul-14 00:29N 37°25' E 025°19'0 0.0
2018-Jul-13 23:57N 37°25' E 025°19'0 0.0
2018-Jul-13 23:30N 37°25' E 025°19'0 0.0
2018-Jul-13 22:57N 37°25' E 025°19'0 0.0
2018-Jul-13 22:30N 37°25' E 025°19'0 0.8
2018-Jul-13 22:00N 37°24' E 025°19'4 7.1
2018-Jul-13 21:30N 37°26' E 025°16'4 8.3
2018-Jul-13 21:00N 37°26' E 025°10'7 8.6
2018-Jul-13 20:09N 37°23' E 025°02'1 8.7
2018-Jul-13 20:00N 37°23' E 025°00'4 8.8
2018-Jul-13 19:31N 37°22' E 024°55'4 8.7
2018-Jul-13 19:00N 37°21' E 024°50'62 9.8
2018-Jul-13 12:41N 37°33' E 023°33'210.9
2018-Jul-13 12:28N 37°33' E 023°30'4 7.7
2018-Jul-13 11:53N 37°31' E 023°26'1 0.3
2018-Jul-13 07:40N 37°30' E 023°27'0 0.0
2018-Jul-13 07:28N 37°30' E 023°27'0 0.0
2018-Jul-13 06:46N 37°30' E 023°27'0 0.0
2018-Jul-13 06:13N 37°30' E 023°27'0 0.0
2018-Jul-13 05:52N 37°30' E 023°27'0 0.0
2018-Jul-13 03:34N 37°30' E 023°27'0 0.0
2018-Jul-13 03:16N 37°30' E 023°27'0 0.0
2018-Jul-13 02:55N 37°30' E 023°27'0 0.0
2018-Jul-13 02:04N 37°30' E 023°27'0 0.0
2018-Jul-13 01:49N 37°30' E 023°27'0 0.0
2018-Jul-13 01:22N 37°30' E 023°27'0 0.0
2018-Jul-13 00:58N 37°30' E 023°27'0 0.0
2018-Jul-13 00:28N 37°30' E 023°27'0 0.0
2018-Jul-12 23:58N 37°30' E 023°27'0 0.0
2018-Jul-12 23:28N 37°30' E 023°27'0 0.0
2018-Jul-12 22:58N 37°30' E 023°27'0 0.0
2018-Jul-12 22:28N 37°30' E 023°27'0 0.0
2018-Jul-12 21:58N 37°30' E 023°27'0 0.0
2018-Jul-12 21:13N 37°30' E 023°27'0 0.0
2018-Jul-12 20:55N 37°30' E 023°27'0 0.0
2018-Jul-12 20:25N 37°30' E 023°27'0 0.0
2018-Jul-12 19:58N 37°30' E 023°27'0 0.0
2018-Jul-12 19:28N 37°30' E 023°27'0 0.0
2018-Jul-12 18:55N 37°30' E 023°27'0 0.0
2018-Jul-12 18:28N 37°30' E 023°27'0 0.0
2018-Jul-12 17:04N 37°30' E 023°27'0 0.0
2018-Jul-12 16:52N 37°30' E 023°27'0 0.0
2018-Jul-12 11:46N 37°30' E 023°27'0 0.0
2018-Jul-12 11:25N 37°30' E 023°27'0 0.0
2018-Jul-12 10:52N 37°30' E 023°27'0 0.0
2018-Jul-12 10:22N 37°30' E 023°27'0 0.4
2018-Jul-12 09:55N 37°30' E 023°27'2 4.1
2018-Jul-12 09:30N 37°31' E 023°25'5 8.8
2018-Jul-12 08:59N 37°36' E 023°25'4 8.8
2018-Jul-12 08:31N 37°39' E 023°22'5 9.5
2018-Jul-12 08:00N 37°42' E 023°17'5 9.8
2018-Jul-12 07:30N 37°46' E 023°14'5 9.7
2018-Jul-12 07:00N 37°49' E 023°10'5 9.9
2018-Jul-12 06:30N 37°52' E 023°05'5 9.9
2018-Jul-12 05:59N 37°56' E 022°60'4 8.1
2018-Jul-12 05:30N 37°58' E 022°56'5 9.8
2018-Jul-12 05:00N 38°00' E 022°50'510.8
2018-Jul-12 04:30N 38°03' E 022°44'  

Dump ship's entire track history